AirNav   Pilot Hours Calculator
 
 1347 users online  

ID35 High Valley Airport
Cascade, Idaho, USA

GOING TO CASCADE?


FAA INFORMATION EFFECTIVE 16 JUNE 2022

Location

FAA Identifier: ID35
Lat/Long: 44-14-20.6090N 116-08-36.4720W
44-14.343483N 116-08.607867W
44.2390581,-116.1434644
(estimated)
Elevation: 4883 ft. / 1488.3 m (surveyed)
Variation: 17E (1985)
From city: 18 miles SW of CASCADE, ID
Time zone: UTC -6 (UTC -7 during Standard Time)
Zip code: 83611

Airport Operations

Airport use: Private use. Permission required prior to landing
Activation date: 11/1981
Control tower: no
ARTCC: SALT LAKE CITY CENTER
FSS: BOISE FLIGHT SERVICE STATION
Attendance: UNATNDD
Wind indicator: yes
Segmented circle: no

Airport Services

Runway Information

Runway 18/36

Dimensions: 2300 x 50 ft. / 701 x 15 m
Surface: turf/dirt
RUNWAY 18  RUNWAY 36
Traffic pattern: leftleft

Airport Ownership and Management from official FAA records

Ownership: Privately-owned
Owner: DAVID TODD KLIMAS
8410 EAST REGINA CIRCLE
MESA, AZ 85207
Phone 602-513-9800
Manager: TODD KLIMAS
8410 EAST REGINA CIRCLE
MESA, AZ 85207
Phone 602-513-9800

Airport Operational Statistics

Aircraft based on the field: 6
Single engine airplanes: 6
    

Additional Remarks

CAUTION: RWY 18/36 TREES AND BIRD HAZARD ON RWY 18.
FOR CD CTC SALT LAKE ARTCC AT 801-320-2568.

Instrument Procedures

There are no published instrument procedures at ID35.

Some nearby airports with instrument procedures:

S87 - Weiser Municipal Airport (35 nm W)
KMYL - Mc Call Municipal Airport (39 nm N)
KONO - Ontario Municipal Airport (40 nm W)
KBOI - Boise Air Terminal/Gowen Field (41 nm S)
KEUL - Treasure Valley Executive Airport at Caldwell (42 nm SW)
 
Loc | Ops | Rwys | IFR | FBO | Links
Com | Nav | Svcs | Stats | Notes
Area around ID35 (High Valley Airport)
 
Road maps at: MapQuest Bing Google
 
Aerial photo
WARNING: Photo may not be current or correct
Aerial photo of ID35 (High Valley Airport)
Photo by Alan Wallace
Photo taken 14-May-2007

Do you have a better or more recent aerial photo of High Valley Airport that you would like to share? If so, please send us your photo.

 
Sectional chart

 
Airport distance calculator
Flying to High Valley Airport? Find the distance to fly.

From to ID35

Sunrise and sunset
Times for 28-Jun-2022
 Local
(UTC-6)
 Zulu
(UTC)
Morning civil twilight05:2811:28
Sunrise06:0412:04
Sunset21:3103:31
Evening civil twilight22:0804:08

Current date and time
Zulu (UTC)  28-Jun-2022 22:46:16
Local (UTC-6)  28-Jun-2022 16:46:16
 
METAR
KMYL 
39nm N 
282151Z AUTO 24013G25KT 10SM CLR 29/01 A3009 RMK AO2 PK WND 20029/2109 SLP138 T02890011
KONO 
40nm W 
282153Z AUTO VRB04KT 10SM CLR 38/04 A2989 RMK AO2 SLP100 T03780039
KBOI 
41nm S 
282153Z VRB06KT 10SM CLR 36/M03 A2994 RMK AO2 SLP101 T03611033
KEUL 
43nm SW 
282156Z AUTO VRB03KT 10SM CLR 36/04 A2991 RMK AO2 SLP102 T03560039
KMAN 
43nm SW 
282235Z AUTO 05006KT 10SM 36/02 A2990 RMK A01
TAF
KMYL 
39nm N 
281738Z 2818/2918 VRB05KT P6SM SCT150 FM282000 21011G20KT P6SM BKN150 FM290300 VRB04KT P6SM FEW100
KBOI 
41nm S 
281738Z 2818/2918 31010KT P6SM SCT150 FM290000 30012G22KT P6SM SCT150 FM290900 30007KT P6SM FEW200
KEUL 
43nm SW 
281738Z 2818/2918 VRB05KT P6SM SCT150 FM282200 32011G23KT P6SM SCT120 FM290900 30007KT P6SM FEW200
NOTAMs
Click for the latest NOTAMs
NOTAMs are issued by the DoD/FAA and will open in a separate window not controlled by AirNav.

 

 
 

Would you like to see your business listed on this page?

 If your business provides an interesting product or service to pilots, flight crews, aircraft, or users of the High Valley Airport, you should consider listing it here.  To start the listing process, click on the button below
 
Add a business
 

Other Pages about High Valley Airport

Update a link
 
Copyright © AirNav, LLC. All rights reserved. Privacy Policy  Contact